sensor_id;sensor_type;location;lat;lon;timestamp;pressure;altitude;pressure_sealevel;temperature;humidity
21817;BME280;13247;47.504;7.382;2023-04-10T00:01:25;97759.66;;;5.17;100.00
21817;BME280;13247;47.504;7.382;2023-04-10T00:04:10;97758.78;;;5.21;100.00
21817;BME280;13247;47.504;7.382;2023-04-10T00:06:54;97758.78;;;5.21;100.00
21817;BME280;13247;47.504;7.382;2023-04-10T00:09:39;97757.94;;;5.01;100.00
21817;BME280;13247;47.504;7.382;2023-04-10T00:12:23;97757.97;;;4.91;100.00
21817;BME280;13247;47.504;7.382;2023-04-10T00:15:08;97756.25;;;4.91;100.00
21817;BME280;13247;47.504;7.382;2023-04-10T00:17:53;97757.13;;;4.84;100.00
21817;BME280;13247;47.504;7.382;2023-04-10T00:20:38;97751.97;;;4.66;100.00
21817;BME280;13247;47.504;7.382;2023-04-10T00:23:23;97752.88;;;4.53;100.00
21817;BME280;13247;47.504;7.382;2023-04-10T00:26:07;97751.16;;;4.43;100.00
21817;BME280;13247;47.504;7.382;2023-04-10T00:28:52;97757.19;;;4.42;100.00
21817;BME280;13247;47.504;7.382;2023-04-10T00:31:37;97752.88;;;4.41;100.00
21817;BME280;13247;47.504;7.382;2023-04-10T00:34:22;97744.19;;;4.57;100.00
21817;BME280;13247;47.504;7.382;2023-04-10T00:37:07;97742.41;;;4.80;100.00
21817;BME280;13247;47.504;7.382;2023-04-10T00:39:51;97740.59;;;5.12;100.00
21817;BME280;13247;47.504;7.382;2023-04-10T00:42:36;97741.53;;;4.96;100.00
21817;BME280;13247;47.504;7.382;2023-04-10T00:45:20;97743.25;;;4.96;100.00
21817;BME280;13247;47.504;7.382;2023-04-10T00:48:05;97736.25;;;5.19;100.00
21817;BME280;13247;47.504;7.382;2023-04-10T00:50:51;97736.16;;;5.32;100.00
21817;BME280;13247;47.504;7.382;2023-04-10T00:53:35;97733.59;;;5.31;100.00
21817;BME280;13247;47.504;7.382;2023-04-10T00:56:20;97725.81;;;5.25;100.00
21817;BME280;13247;47.504;7.382;2023-04-10T00:59:07;97732.91;;;4.74;100.00
21817;BME280;13247;47.504;7.382;2023-04-10T01:01:51;97732.97;;;4.58;100.00
21817;BME280;13247;47.504;7.382;2023-04-10T01:04:36;97737.28;;;4.66;100.00
21817;BME280;13247;47.504;7.382;2023-04-10T01:13:30;97735.47;;;4.88;100.00
21817;BME280;13247;47.504;7.382;2023-04-10T01:16:23;97742.34;;;5.07;100.00
21817;BME280;13247;47.504;7.382;2023-04-10T01:19:49;97745.78;;;5.18;100.00
21817;BME280;13247;47.504;7.382;2023-04-10T01:28:59;97741.56;;;4.87;100.00
21817;BME280;13247;47.504;7.382;2023-04-10T01:34:45;97740.66;;;4.91;100.00
21817;BME280;13247;47.504;7.382;2023-04-10T01:37:32;97742.44;;;4.78;100.00
21817;BME280;13247;47.504;7.382;2023-04-10T01:40:19;97743.31;;;4.76;100.00
21817;BME280;13247;47.504;7.382;2023-04-10T01:43:06;97729.50;;;4.51;100.00
21817;BME280;13247;47.504;7.382;2023-04-10T01:45:53;97732.09;;;4.62;100.00
21817;BME280;13247;47.504;7.382;2023-04-10T01:48:41;97729.44;;;4.85;100.00
21817;BME280;13247;47.504;7.382;2023-04-10T01:51:26;97731.19;;;4.73;100.00
21817;BME280;13247;47.504;7.382;2023-04-10T01:54:13;97729.47;;;4.66;100.00
21817;BME280;13247;47.504;7.382;2023-04-10T01:57:00;97726.00;;;4.58;100.00
21817;BME280;13247;47.504;7.382;2023-04-10T01:59:46;97732.06;;;4.65;100.00
21817;BME280;13247;47.504;7.382;2023-04-10T02:02:32;97723.44;;;4.51;100.00
21817;BME280;13247;47.504;7.382;2023-04-10T02:05:17;97736.44;;;4.13;100.00
21817;BME280;13247;47.504;7.382;2023-04-10T02:08:17;97745.94;;;3.91;100.00
21817;BME280;13247;47.504;7.382;2023-04-10T02:11:12;97736.44;;;4.13;100.00
21817;BME280;13247;47.504;7.382;2023-04-10T02:14:01;97734.72;;;4.45;100.00
21817;BME280;13247;47.504;7.382;2023-04-10T02:16:48;97733.78;;;4.67;100.00
21817;BME280;13247;47.504;7.382;2023-04-10T02:19:36;97740.69;;;4.82;100.00
21817;BME280;13247;47.504;7.382;2023-04-10T02:22:22;97745.94;;;4.58;100.00
21817;BME280;13247;47.504;7.382;2023-04-10T02:25:09;97739.03;;;4.54;100.00
21817;BME280;13247;47.504;7.382;2023-04-10T02:27:54;97743.31;;;4.67;100.00
21817;BME280;13247;47.504;7.382;2023-04-10T02:30:39;97741.56;;;4.76;100.00
21817;BME280;13247;47.504;7.382;2023-04-10T02:33:24;97744.16;;;4.86;100.00
21817;BME280;13247;47.504;7.382;2023-04-10T02:36:08;97738.97;;;4.78;100.00
21817;BME280;13247;47.504;7.382;2023-04-10T02:38:53;97739.03;;;4.54;100.00
21817;BME280;13247;47.504;7.382;2023-04-10T02:41:38;97741.59;;;4.48;100.00
21817;BME280;13247;47.504;7.382;2023-04-10T02:44:22;97739.88;;;4.42;100.00
21817;BME280;13247;47.504;7.382;2023-04-10T02:47:07;97730.38;;;4.53;100.00
21817;BME280;13247;47.504;7.382;2023-04-10T02:49:55;97725.19;;;4.49;100.00
21817;BME280;13247;47.504;7.382;2023-04-10T02:52:40;97729.53;;;4.30;100.00
21817;BME280;13247;47.504;7.382;2023-04-10T02:55:25;97724.34;;;4.24;100.00
21817;BME280;13247;47.504;7.382;2023-04-10T02:58:10;97725.19;;;4.49;100.00
21817;BME280;13247;47.504;7.382;2023-04-10T03:00:54;97722.59;;;4.31;100.00
21817;BME280;13247;47.504;7.382;2023-04-10T03:03:40;97717.41;;;4.23;100.00
21817;BME280;13247;47.504;7.382;2023-04-10T03:06:24;97709.63;;;4.17;100.00
21817;BME280;13247;47.504;7.382;2023-04-10T03:09:12;97694.06;;;4.26;100.00
21817;BME280;13247;47.504;7.382;2023-04-10T03:11:57;97690.56;;;4.32;100.00
21817;BME280;13247;47.504;7.382;2023-04-10T03:14:42;97688.88;;;4.13;100.00
21817;BME280;13247;47.504;7.382;2023-04-10T03:17:26;97686.28;;;4.13;100.00
21817;BME280;13247;47.504;7.382;2023-04-10T03:20:11;97680.22;;;4.20;100.00
21817;BME280;13247;47.504;7.382;2023-04-10T03:22:56;97674.16;;;4.34;100.00
21817;BME280;13247;47.504;7.382;2023-04-10T03:25:41;97675.81;;;4.55;100.00
21817;BME280;13247;47.504;7.382;2023-04-10T03:28:26;97670.63;;;4.46;100.00
21817;BME280;13247;47.504;7.382;2023-04-10T03:31:11;97672.41;;;4.23;100.00
21817;BME280;13247;47.504;7.382;2023-04-10T03:33:55;97675.84;;;4.38;100.00
21817;BME280;13247;47.504;7.382;2023-04-10T03:36:40;97681.97;;;4.03;100.00
21817;BME280;13247;47.504;7.382;2023-04-10T03:39:25;97681.09;;;4.10;100.00
21817;BME280;13247;47.504;7.382;2023-04-10T03:42:09;97676.75;;;4.30;100.00
21817;BME280;13247;47.504;7.382;2023-04-10T03:44:54;97681.03;;;4.40;100.00
21817;BME280;13247;47.504;7.382;2023-04-10T03:47:39;97680.16;;;4.50;100.00
21817;BME280;13247;47.504;7.382;2023-04-10T03:50:23;97679.28;;;4.57;100.00
21817;BME280;13247;47.504;7.382;2023-04-10T03:53:08;97680.16;;;4.53;100.00
21817;BME280;13247;47.504;7.382;2023-04-10T03:55:53;97677.53;;;4.72;100.00
21817;BME280;13247;47.504;7.382;2023-04-10T03:58:38;97675.81;;;4.59;100.00
21817;BME280;13247;47.504;7.382;2023-04-10T04:01:22;97672.34;;;4.54;100.00
21817;BME280;13247;47.504;7.382;2023-04-10T04:04:07;97674.06;;;4.61;100.00
21817;BME280;13247;47.504;7.382;2023-04-10T04:06:54;97681.03;;;4.35;100.00
21817;BME280;13247;47.504;7.382;2023-04-10T04:09:39;97681.06;;;4.25;100.00
21817;BME280;13247;47.504;7.382;2023-04-10T04:12:27;97674.16;;;4.28;100.00
21817;BME280;13247;47.504;7.382;2023-04-10T04:15:11;97678.47;;;4.43;100.00
21817;BME280;13247;47.504;7.382;2023-04-10T04:17:56;97675.84;;;4.52;100.00
21817;BME280;13247;47.504;7.382;2023-04-10T04:20:41;97680.19;;;4.29;100.00
21817;BME280;13247;47.504;7.382;2023-04-10T04:23:26;97681.06;;;4.29;100.00
21817;BME280;13247;47.504;7.382;2023-04-10T04:26:10;97679.31;;;4.40;100.00
21817;BME280;13247;47.504;7.382;2023-04-10T04:28:55;97684.53;;;4.28;100.00
21817;BME280;13247;47.504;7.382;2023-04-10T04:31:39;97678.47;;;4.37;100.00
21817;BME280;13247;47.504;7.382;2023-04-10T04:34:24;97687.97;;;4.47;100.00
21817;BME280;13247;47.504;7.382;2023-04-10T04:37:09;97687.94;;;4.48;100.00
21817;BME280;13247;47.504;7.382;2023-04-10T04:39:53;97687.97;;;4.51;100.00
21817;BME280;13247;47.504;7.382;2023-04-10T04:42:38;97678.44;;;4.46;100.00
21817;BME280;13247;47.504;7.382;2023-04-10T04:45:23;97681.97;;;4.22;100.00
21817;BME280;13247;47.504;7.382;2023-04-10T04:48:08;97681.94;;;4.06;100.00
21817;BME280;13247;47.504;7.382;2023-04-10T04:50:53;97676.75;;;4.15;100.00
21817;BME280;13247;47.504;7.382;2023-04-10T04:53:37;97681.09;;;4.11;100.00
21817;BME280;13247;47.504;7.382;2023-04-10T04:56:22;97675.03;;;4.17;100.00
21817;BME280;13247;47.504;7.382;2023-04-10T04:59:06;97688.00;;;4.06;100.00
21817;BME280;13247;47.504;7.382;2023-04-10T05:01:51;97686.28;;;4.10;100.00
21817;BME280;13247;47.504;7.382;2023-04-10T05:04:36;97689.72;;;4.15;100.00
21817;BME280;13247;47.504;7.382;2023-04-10T05:07:21;97688.00;;;4.11;100.00
21817;BME280;13247;47.504;7.382;2023-04-10T05:10:06;97690.59;;;4.08;100.00
21817;BME280;13247;47.504;7.382;2023-04-10T05:12:52;97682.81;;;3.82;100.00
21817;BME280;13247;47.504;7.382;2023-04-10T05:15:37;97690.63;;;3.92;100.00
21817;BME280;13247;47.504;7.382;2023-04-10T05:18:22;97679.34;;;3.93;100.00
21817;BME280;13247;47.504;7.382;2023-04-10T05:21:07;97689.75;;;3.75;100.00
21817;BME280;13247;47.504;7.382;2023-04-10T05:23:52;97683.69;;;3.96;100.00
21817;BME280;13247;47.504;7.382;2023-04-10T05:26:36;97681.94;;;4.15;100.00
21817;BME280;13247;47.504;7.382;2023-04-10T05:29:21;97686.28;;;4.10;100.00
21817;BME280;13247;47.504;7.382;2023-04-10T05:32:07;97680.22;;;3.95;100.00
21817;BME280;13247;47.504;7.382;2023-04-10T05:34:51;97687.13;;;3.81;100.00
21817;BME280;13247;47.504;7.382;2023-04-10T05:37:36;97696.66;;;3.94;100.00
21817;BME280;13247;47.504;7.382;2023-04-10T05:40:20;97687.13;;;4.15;100.00
21817;BME280;13247;47.504;7.382;2023-04-10T05:43:05;97695.78;;;3.83;100.00
21817;BME280;13247;47.504;7.382;2023-04-10T05:45:49;97699.22;;;3.64;100.00
21817;BME280;13247;47.504;7.382;2023-04-10T05:48:34;97700.97;;;3.71;100.00
21817;BME280;13247;47.504;7.382;2023-04-10T05:51:18;97702.69;;;3.93;100.00
21817;BME280;13247;47.504;7.382;2023-04-10T05:54:03;97693.19;;;4.11;100.00
21817;BME280;13247;47.504;7.382;2023-04-10T05:56:48;97694.91;;;4.19;100.00
21817;BME280;13247;47.504;7.382;2023-04-10T05:59:32;97699.22;;;4.35;100.00
21817;BME280;13247;47.504;7.382;2023-04-10T06:02:17;97694.91;;;4.34;100.00
21817;BME280;13247;47.504;7.382;2023-04-10T06:05:02;97694.03;;;4.40;100.00
21817;BME280;13247;47.504;7.382;2023-04-10T06:07:46;97703.53;;;4.39;100.00
21817;BME280;13247;47.504;7.382;2023-04-10T06:10:32;97706.13;;;4.53;100.00
21817;BME280;13247;47.504;7.382;2023-04-10T06:13:16;97708.72;;;4.56;100.00
21817;BME280;13247;47.504;7.382;2023-04-10T06:16:01;97713.03;;;4.61;100.00
21817;BME280;13247;47.504;7.382;2023-04-10T06:18:46;97713.00;;;4.78;100.00
21817;BME280;13247;47.504;7.382;2023-04-10T06:21:31;97715.50;;;5.05;100.00
21817;BME280;13247;47.504;7.382;2023-04-10T06:24:16;97709.41;;;5.12;100.00
21817;BME280;13247;47.504;7.382;2023-04-10T06:27:01;97711.94;;;5.24;100.00
21817;BME280;13247;47.504;7.382;2023-04-10T06:29:46;97709.28;;;5.38;100.00
21817;BME280;13247;47.504;7.382;2023-04-10T06:32:31;97705.75;;;5.49;100.00
21817;BME280;13247;47.504;7.382;2023-04-10T06:35:15;97712.63;;;5.63;100.00
21817;BME280;13247;47.504;7.382;2023-04-10T06:38:00;97705.56;;;5.86;100.00
21817;BME280;13247;47.504;7.382;2023-04-10T06:40:44;97707.31;;;5.87;100.00
21817;BME280;13247;47.504;7.382;2023-04-10T06:43:29;97708.03;;;6.02;100.00
21817;BME280;13247;47.504;7.382;2023-04-10T06:46:15;97710.47;;;6.25;100.00
21817;BME280;13247;47.504;7.382;2023-04-10T06:49:00;97703.28;;;6.51;100.00
21817;BME280;13247;47.504;7.382;2023-04-10T06:51:45;97697.81;;;6.74;100.00
21817;BME280;13247;47.504;7.382;2023-04-10T06:54:32;97699.44;;;6.87;100.00
21817;BME280;13247;47.504;7.382;2023-04-10T06:57:16;97702.81;;;6.93;100.00
21817;BME280;13247;47.504;7.382;2023-04-10T07:00:02;97702.50;;;7.21;100.00
21817;BME280;13247;47.504;7.382;2023-04-10T07:02:47;97702.28;;;7.37;100.00
21817;BME280;13247;47.504;7.382;2023-04-10T07:05:32;97694.38;;;7.45;100.00
21817;BME280;13247;47.504;7.382;2023-04-10T07:08:16;97690.72;;;7.58;100.00
21817;BME280;13247;47.504;7.382;2023-04-10T07:11:01;97698.41;;;7.68;100.00
21817;BME280;13247;47.504;7.382;2023-04-10T07:13:46;97698.09;;;7.88;100.00
21817;BME280;13247;47.504;7.382;2023-04-10T07:16:30;97698.75;;;8.01;100.00
21817;BME280;13247;47.504;7.382;2023-04-10T07:19:16;97688.16;;;8.13;100.00
21817;BME280;13247;47.504;7.382;2023-04-10T07:22:00;97688.91;;;8.19;100.00
21817;BME280;13247;47.504;7.382;2023-04-10T07:24:45;97693.06;;;8.32;100.00
21817;BME280;13247;47.504;7.382;2023-04-10T07:27:29;97687.59;;;8.46;100.00
21817;BME280;13247;47.504;7.382;2023-04-10T07:30:15;97691.63;;;8.65;100.00
21817;BME280;13247;47.504;7.382;2023-04-10T07:32:59;97686.06;;;8.82;100.00
21817;BME280;13247;47.504;7.382;2023-04-10T07:35:44;97686.78;;;8.90;100.00
21817;BME280;13247;47.504;7.382;2023-04-10T07:38:28;97693.44;;;9.07;100.00
21817;BME280;13247;47.504;7.382;2023-04-10T07:41:13;97686.19;;;9.20;100.00
21817;BME280;13247;47.504;7.382;2023-04-10T07:43:58;97692.50;;;9.51;100.00
21817;BME280;13247;47.504;7.382;2023-04-10T07:46:43;97688.03;;;9.56;100.00
21817;BME280;13247;47.504;7.382;2023-04-10T07:49:27;97676.56;;;9.62;100.00
21817;BME280;13247;47.504;7.382;2023-04-10T07:52:12;97674.63;;;9.71;100.00
21817;BME280;13247;47.504;7.382;2023-04-10T07:54:56;97670.06;;;9.79;100.00
21817;BME280;13247;47.504;7.382;2023-04-10T07:57:41;97670.59;;;9.93;100.00
21817;BME280;13247;47.504;7.382;2023-04-10T08:00:25;97665.97;;;10.04;100.00
21817;BME280;13247;47.504;7.382;2023-04-10T08:03:11;97659.41;;;10.23;100.00
21817;BME280;13247;47.504;7.382;2023-04-10T08:05:56;97654.47;;;10.47;100.00
21817;BME280;13247;47.504;7.382;2023-04-10T08:08:41;97661.38;;;10.49;100.00
21817;BME280;13247;47.504;7.382;2023-04-10T08:11:28;97661.09;;;10.60;100.00
21817;BME280;13247;47.504;7.382;2023-04-10T08:14:13;97659.75;;;10.77;100.00
21817;BME280;13247;47.504;7.382;2023-04-10T08:16:57;97661.88;;;10.95;100.00
21817;BME280;13247;47.504;7.382;2023-04-10T08:19:42;97664.28;;;11.03;100.00
21817;BME280;13247;47.504;7.382;2023-04-10T08:22:26;97669.84;;;11.23;100.00
21817;BME280;13247;47.504;7.382;2023-04-10T08:25:11;97677.13;;;11.43;100.00
21817;BME280;13247;47.504;7.382;2023-04-10T08:27:56;97659.75;;;11.39;98.08
21817;BME280;13247;47.504;7.382;2023-04-10T08:30:40;97660.84;;;11.61;99.77
21817;BME280;13247;47.504;7.382;2023-04-10T08:33:25;97654.28;;;11.75;95.46
21817;BME280;13247;47.504;7.382;2023-04-10T08:36:10;97655.72;;;11.86;92.78
21817;BME280;13247;47.504;7.382;2023-04-10T08:38:56;97654.31;;;12.02;95.25
21817;BME280;13247;47.504;7.382;2023-04-10T08:41:40;97659.88;;;12.19;90.78
21817;BME280;13247;47.504;7.382;2023-04-10T08:44:25;97656.38;;;12.20;89.46
21817;BME280;13247;47.504;7.382;2023-04-10T08:47:10;97664.78;;;12.31;88.04
21817;BME280;13247;47.504;7.382;2023-04-10T08:49:59;97659.09;;;12.43;87.62
21817;BME280;13247;47.504;7.382;2023-04-10T08:52:46;97658.38;;;12.64;88.82
21817;BME280;13247;47.504;7.382;2023-04-10T08:55:34;97656.09;;;12.78;86.33
21817;BME280;13247;47.504;7.382;2023-04-10T08:58:20;97645.97;;;12.92;87.15
21817;BME280;13247;47.504;7.382;2023-04-10T09:01:07;97651.69;;;13.03;86.25
21817;BME280;13247;47.504;7.382;2023-04-10T09:03:55;97650.59;;;13.10;83.05
21817;BME280;13247;47.504;7.382;2023-04-10T09:06:40;97646.69;;;13.22;81.60
21817;BME280;13247;47.504;7.382;2023-04-10T09:09:25;97650.53;;;13.36;83.39
21817;BME280;13247;47.504;7.382;2023-04-10T09:12:12;97650.28;;;13.43;81.25
21817;BME280;13247;47.504;7.382;2023-04-10T09:14:57;97651.16;;;13.65;81.69
21817;BME280;13247;47.504;7.382;2023-04-10T09:18:01;97648.78;;;13.59;78.96
21817;BME280;13247;47.504;7.382;2023-04-10T09:20:47;97649.97;;;13.73;77.99
21817;BME280;13247;47.504;7.382;2023-04-10T09:23:34;97637.34;;;13.81;73.62
21817;BME280;13247;47.504;7.382;2023-04-10T09:29:08;97640.59;;;14.09;76.34
21817;BME280;13247;47.504;7.382;2023-04-10T09:31:54;97633.19;;;14.19;74.01
21817;BME280;13247;47.504;7.382;2023-04-10T09:34:55;97632.38;;;14.39;75.22
21817;BME280;13247;47.504;7.382;2023-04-10T09:37:44;97635.44;;;14.50;76.46
21817;BME280;13247;47.504;7.382;2023-04-10T09:40:30;97621.88;;;14.59;72.22
21817;BME280;13247;47.504;7.382;2023-04-10T09:43:27;97625.28;;;14.81;70.92
21817;BME280;13247;47.504;7.382;2023-04-10T09:46:11;97623.63;;;15.37;85.26
21817;BME280;13247;47.504;7.382;2023-04-10T09:49:09;97614.63;;;15.41;69.98
21817;BME280;13247;47.504;7.382;2023-04-10T09:51:54;97612.22;;;15.17;69.71
21817;BME280;13247;47.504;7.382;2023-04-10T09:54:39;97613.16;;;15.16;66.44
21817;BME280;13247;47.504;7.382;2023-04-10T09:57:26;97609.78;;;15.12;67.99
21817;BME280;13247;47.504;7.382;2023-04-10T10:00:11;97599.75;;;15.20;71.20
21817;BME280;13247;47.504;7.382;2023-04-10T10:02:59;97594.53;;;15.19;64.69
21817;BME280;13247;47.504;7.382;2023-04-10T10:05:50;97591.16;;;15.73;64.87
21817;BME280;13247;47.504;7.382;2023-04-10T10:08:36;97588.09;;;15.99;64.78
21817;BME280;13247;47.504;7.382;2023-04-10T10:11:23;97589.91;;;15.98;62.60
21817;BME280;13247;47.504;7.382;2023-04-10T10:14:15;97583.09;;;16.45;63.79
21817;BME280;13247;47.504;7.382;2023-04-10T10:17:04;97578.88;;;16.41;61.15
21817;BME280;13247;47.504;7.382;2023-04-10T10:22:50;97579.38;;;16.32;56.71
21817;BME280;13247;47.504;7.382;2023-04-10T10:25:37;97574.03;;;15.98;55.14
21817;BME280;13247;47.504;7.382;2023-04-10T10:28:24;97576.53;;;16.18;52.84
21817;BME280;13247;47.504;7.382;2023-04-10T10:31:12;97575.63;;;16.36;54.36
21817;BME280;13247;47.504;7.382;2023-04-10T10:33:57;97582.16;;;16.29;54.11
21817;BME280;13247;47.504;7.382;2023-04-10T10:36:46;97571.75;;;16.61;54.13
21817;BME280;13247;47.504;7.382;2023-04-10T10:45:41;97568.81;;;16.14;57.89
21817;BME280;13247;47.504;7.382;2023-04-10T10:48:30;97564.88;;;16.39;54.94
21817;BME280;13247;47.504;7.382;2023-04-10T10:51:15;97550.94;;;16.87;52.05
21817;BME280;13247;47.504;7.382;2023-04-10T10:53:59;97556.25;;;16.87;51.60
21817;BME280;13247;47.504;7.382;2023-04-10T10:56:44;97545.66;;;17.03;50.11
21817;BME280;13247;47.504;7.382;2023-04-10T11:02:32;97542.38;;;17.31;50.41
21817;BME280;13247;47.504;7.382;2023-04-10T11:08:36;97547.91;;;17.10;50.49
21817;BME280;13247;47.504;7.382;2023-04-10T11:11:30;97548.53;;;17.47;51.00
21817;BME280;13247;47.504;7.382;2023-04-10T11:14:17;97537.91;;;17.15;53.01
21817;BME280;13247;47.504;7.382;2023-04-10T11:17:02;97538.53;;;17.20;53.04
21817;BME280;13247;47.504;7.382;2023-04-10T11:19:59;97548.31;;;17.51;53.14
21817;BME280;13247;47.504;7.382;2023-04-10T11:23:10;97546.59;;;17.97;54.40
21817;BME280;13247;47.504;7.382;2023-04-10T11:25:55;97547.66;;;18.24;50.50
21817;BME280;13247;47.504;7.382;2023-04-10T11:28:39;97549.00;;;17.86;49.71
21817;BME280;13247;47.504;7.382;2023-04-10T11:31:25;97544.69;;;16.88;55.36
21817;BME280;13247;47.504;7.382;2023-04-10T11:34:10;97543.00;;;17.03;54.39
21817;BME280;13247;47.504;7.382;2023-04-10T11:36:55;97535.72;;;17.39;53.46
21817;BME280;13247;47.504;7.382;2023-04-10T11:39:40;97542.75;;;17.07;54.57
21817;BME280;13247;47.504;7.382;2023-04-10T11:42:25;97539.38;;;17.21;53.49
21817;BME280;13247;47.504;7.382;2023-04-10T11:45:26;97530.63;;;17.03;52.79
21817;BME280;13247;47.504;7.382;2023-04-10T11:48:11;97528.53;;;17.41;53.65
21817;BME280;13247;47.504;7.382;2023-04-10T11:50:56;97525.94;;;18.02;52.10
21817;BME280;13247;47.504;7.382;2023-04-10T11:53:41;97530.75;;;17.95;52.56
21817;BME280;13247;47.504;7.382;2023-04-10T11:56:26;97533.44;;;17.64;54.17
21817;BME280;13247;47.504;7.382;2023-04-10T11:59:17;97525.78;;;17.89;52.60
21817;BME280;13247;47.504;7.382;2023-04-10T12:02:14;97520.44;;;17.75;51.72
21817;BME280;13247;47.504;7.382;2023-04-10T12:04:59;97515.66;;;18.41;50.61
21817;BME280;13247;47.504;7.382;2023-04-10T12:07:44;97511.53;;;18.22;52.48
21817;BME280;13247;47.504;7.382;2023-04-10T12:10:45;97513.13;;;17.94;53.70
21817;BME280;13247;47.504;7.382;2023-04-10T12:13:31;97510.91;;;17.87;53.19
21817;BME280;13247;47.504;7.382;2023-04-10T12:16:16;97516.81;;;18.22;53.15
21817;BME280;13247;47.504;7.382;2023-04-10T12:19:01;97498.41;;;17.89;53.11
21817;BME280;13247;47.504;7.382;2023-04-10T12:21:46;97499.91;;;18.09;51.72
21817;BME280;13247;47.504;7.382;2023-04-10T12:24:49;97495.00;;;18.17;52.21
21817;BME280;13247;47.504;7.382;2023-04-10T12:27:33;97500.72;;;17.95;54.38
21817;BME280;13247;47.504;7.382;2023-04-10T12:30:19;97493.69;;;18.24;52.88
21817;BME280;13247;47.504;7.382;2023-04-10T12:33:03;97489.75;;;18.31;50.56
21817;BME280;13247;47.504;7.382;2023-04-10T12:35:51;97491.06;;;18.08;52.22
21817;BME280;13247;47.504;7.382;2023-04-10T12:38:43;97486.63;;;18.09;52.64
21817;BME280;13247;47.504;7.382;2023-04-10T12:41:32;97482.03;;;18.56;49.35
21817;BME280;13247;47.504;7.382;2023-04-10T12:44:17;97488.13;;;18.58;51.68
21817;BME280;13247;47.504;7.382;2023-04-10T12:47:03;97482.81;;;18.72;49.22
21817;BME280;13247;47.504;7.382;2023-04-10T12:53:05;97481.19;;;18.69;50.06
21817;BME280;13247;47.504;7.382;2023-04-10T12:56:04;97475.34;;;19.33;48.40
21817;BME280;13247;47.504;7.382;2023-04-10T12:59:05;97472.66;;;19.62;47.47
21817;BME280;13247;47.504;7.382;2023-04-10T13:01:51;97463.13;;;19.72;48.29
21817;BME280;13247;47.504;7.382;2023-04-10T13:04:36;97473.72;;;19.59;47.95
21817;BME280;13247;47.504;7.382;2023-04-10T13:07:21;97483.25;;;18.50;49.04
21817;BME280;13247;47.504;7.382;2023-04-10T13:10:06;97472.63;;;18.50;48.34
21817;BME280;13247;47.504;7.382;2023-04-10T13:12:51;97472.44;;;18.10;49.88
21817;BME280;13247;47.504;7.382;2023-04-10T13:15:35;97469.03;;;17.92;51.47
21817;BME280;13247;47.504;7.382;2023-04-10T13:18:20;97472.69;;;18.35;48.96
21817;BME280;13247;47.504;7.382;2023-04-10T13:21:05;97463.16;;;18.60;48.45
21817;BME280;13247;47.504;7.382;2023-04-10T13:23:49;97456.13;;;18.45;49.87
21817;BME280;13247;47.504;7.382;2023-04-10T13:26:34;97456.03;;;19.03;47.98
21817;BME280;13247;47.504;7.382;2023-04-10T13:29:18;97448.69;;;19.21;48.27
21817;BME280;13247;47.504;7.382;2023-04-10T13:32:03;97457.78;;;18.32;50.29
21817;BME280;13247;47.504;7.382;2023-04-10T13:34:49;97457.53;;;17.77;53.26
21817;BME280;13247;47.504;7.382;2023-04-10T13:37:34;97451.38;;;18.07;52.59
21817;BME280;13247;47.504;7.382;2023-04-10T13:40:20;97447.56;;;17.96;53.05
21817;BME280;13247;47.504;7.382;2023-04-10T13:43:05;97441.63;;;18.07;52.21
21817;BME280;13247;47.504;7.382;2023-04-10T13:45:50;97447.94;;;18.04;52.70
21817;BME280;13247;47.504;7.382;2023-04-10T13:48:34;97446.25;;;18.03;52.72
21817;BME280;13247;47.504;7.382;2023-04-10T13:51:24;97444.59;;;18.31;51.01
21817;BME280;13247;47.504;7.382;2023-04-10T13:54:09;97438.88;;;18.80;48.81
21817;BME280;13247;47.504;7.382;2023-04-10T13:56:54;97434.94;;;19.14;48.09
21817;BME280;13247;47.504;7.382;2023-04-10T13:59:39;97444.16;;;19.09;48.33
21817;BME280;13247;47.504;7.382;2023-04-10T14:02:24;97442.13;;;19.26;47.41
21817;BME280;13247;47.504;7.382;2023-04-10T14:05:09;97435.94;;;19.93;46.21
21817;BME280;13247;47.504;7.382;2023-04-10T14:07:54;97427.84;;;19.95;46.83
21817;BME280;13247;47.504;7.382;2023-04-10T14:10:40;97436.06;;;19.38;47.24
21817;BME280;13247;47.504;7.382;2023-04-10T14:13:25;97432.66;;;19.36;47.47
21817;BME280;13247;47.504;7.382;2023-04-10T14:16:10;97435.88;;;18.43;50.75
21817;BME280;13247;47.504;7.382;2023-04-10T14:18:55;97428.59;;;18.89;47.81
21817;BME280;13247;47.504;7.382;2023-04-10T14:21:39;97424.97;;;19.04;47.86
21817;BME280;13247;47.504;7.382;2023-04-10T14:24:27;97417.91;;;19.45;48.06
21817;BME280;13247;47.504;7.382;2023-04-10T14:27:12;97415.63;;;20.17;48.41
21817;BME280;13247;47.504;7.382;2023-04-10T14:29:57;97415.00;;;20.14;49.62
21817;BME280;13247;47.504;7.382;2023-04-10T14:32:42;97422.56;;;19.27;50.01
21817;BME280;13247;47.504;7.382;2023-04-10T14:35:27;97420.00;;;19.67;50.42
21817;BME280;13247;47.504;7.382;2023-04-10T14:38:11;97416.53;;;19.52;47.10
21817;BME280;13247;47.504;7.382;2023-04-10T14:40:56;97408.09;;;19.45;47.12
21817;BME280;13247;47.504;7.382;2023-04-10T14:43:41;97397.47;;;19.72;48.37
21817;BME280;13247;47.504;7.382;2023-04-10T14:46:26;97400.13;;;19.31;48.71
21817;BME280;13247;47.504;7.382;2023-04-10T14:49:11;97400.38;;;19.14;47.76
21817;BME280;13247;47.504;7.382;2023-04-10T14:51:56;97389.09;;;18.97;48.01
21817;BME280;13247;47.504;7.382;2023-04-10T14:54:40;97388.81;;;19.01;48.77
21817;BME280;13247;47.504;7.382;2023-04-10T14:57:24;97377.66;;;19.23;49.22
21817;BME280;13247;47.504;7.382;2023-04-10T15:00:09;97381.81;;;19.00;48.66
21817;BME280;13247;47.504;7.382;2023-04-10T15:02:54;97375.44;;;19.03;47.34
21817;BME280;13247;47.504;7.382;2023-04-10T15:05:42;97373.16;;;19.37;47.83
21817;BME280;13247;47.504;7.382;2023-04-10T15:08:26;97377.50;;;19.12;49.68
21817;BME280;13247;47.504;7.382;2023-04-10T15:11:11;97365.41;;;19.20;46.87
21817;BME280;13247;47.504;7.382;2023-04-10T15:13:58;97362.22;;;19.15;47.71
21817;BME280;13247;47.504;7.382;2023-04-10T15:16:43;97363.38;;;19.11;48.53